createdAt,value
2018-09-16T00:00:05.534Z,22.30
2018-09-16T00:02:33.938Z,22.30
2018-09-16T00:05:02.469Z,22.30
2018-09-16T00:07:30.859Z,22.30
2018-09-16T00:09:59.237Z,22.30
2018-09-16T00:12:27.584Z,22.30
2018-09-16T00:14:55.963Z,22.30
2018-09-16T00:17:24.619Z,22.30
2018-09-16T00:19:53.337Z,22.30
2018-09-16T00:22:22.189Z,22.30
2018-09-16T00:24:50.615Z,22.30
2018-09-16T00:27:19.210Z,22.30
2018-09-16T00:29:47.618Z,22.30
2018-09-16T00:32:21.389Z,22.30
2018-09-16T00:34:49.749Z,22.30
2018-09-16T00:37:18.483Z,22.30
2018-09-16T00:39:46.921Z,22.30
2018-09-16T00:42:15.255Z,22.30
2018-09-16T00:44:43.655Z,22.30
2018-09-16T00:47:11.986Z,22.30
2018-09-16T00:49:40.385Z,22.30
2018-09-16T00:52:08.943Z,22.30
2018-09-16T00:54:37.283Z,22.20
2018-09-16T00:57:05.673Z,22.30
2018-09-16T00:59:34.087Z,22.20
2018-09-16T01:02:02.569Z,22.30
2018-09-16T01:04:31.050Z,22.20
2018-09-16T01:06:59.461Z,22.20
2018-09-16T01:09:27.894Z,22.20
2018-09-16T01:11:56.268Z,22.20
2018-09-16T01:14:24.719Z,22.20
2018-09-16T01:16:53.083Z,22.30
2018-09-16T01:19:21.564Z,22.20
2018-09-16T01:21:50.006Z,22.30
2018-09-16T01:24:18.340Z,22.20
2018-09-16T01:26:46.710Z,22.20
2018-09-16T01:29:15.083Z,22.20
2018-09-16T01:31:43.480Z,22.20
2018-09-16T01:34:11.876Z,22.20
2018-09-16T01:36:40.188Z,22.20
2018-09-16T01:39:08.602Z,22.20
2018-09-16T01:41:36.986Z,22.20
2018-09-16T01:44:05.360Z,22.20
2018-09-16T01:46:33.722Z,22.20
2018-09-16T01:49:02.126Z,22.20
2018-09-16T01:51:30.447Z,22.20
2018-09-16T01:53:58.884Z,22.20
2018-09-16T01:56:27.372Z,22.20
2018-09-16T01:58:55.720Z,22.20
2018-09-16T02:01:24.210Z,22.20
2018-09-16T02:03:52.503Z,22.20
2018-09-16T02:06:20.861Z,22.10
2018-09-16T02:08:49.237Z,22.10
2018-09-16T02:11:17.681Z,22.10
2018-09-16T02:13:46.020Z,22.20
2018-09-16T02:16:14.415Z,22.10
2018-09-16T02:18:42.904Z,22.10
2018-09-16T02:21:11.337Z,22.10
2018-09-16T02:23:39.723Z,22.10
2018-09-16T02:26:08.089Z,22.20
2018-09-16T02:28:36.418Z,22.10
2018-09-16T02:31:04.749Z,22.10
2018-09-16T02:33:33.094Z,22.10
2018-09-16T02:36:01.504Z,22.10
2018-09-16T02:38:29.946Z,22.00
2018-09-16T02:40:58.279Z,22.10
2018-09-16T02:43:26.734Z,22.10
2018-09-16T02:45:54.987Z,22.10
2018-09-16T02:48:23.348Z,22.10
2018-09-16T02:50:51.651Z,22.10
2018-09-16T02:53:20.051Z,22.10
2018-09-16T02:55:48.428Z,22.10
2018-09-16T02:58:17.020Z,22.10
2018-09-16T03:00:45.558Z,22.10
2018-09-16T03:03:13.816Z,22.10
2018-09-16T03:05:48.197Z,22.10
2018-09-16T03:08:17.402Z,22.10
2018-09-16T03:10:45.961Z,22.00
2018-09-16T03:13:14.913Z,22.10
2018-09-16T03:15:43.269Z,22.00
2018-09-16T03:18:11.605Z,22.00
2018-09-16T03:20:39.907Z,22.00
2018-09-16T03:23:08.499Z,22.00
2018-09-16T03:25:36.872Z,22.00
2018-09-16T03:28:05.420Z,22.00
2018-09-16T03:30:33.705Z,22.00
2018-09-16T03:33:02.121Z,22.00
2018-09-16T03:35:30.660Z,22.00
2018-09-16T03:37:58.976Z,22.10
2018-09-16T03:40:27.415Z,22.00
2018-09-16T03:42:57.023Z,22.10
2018-09-16T03:45:25.402Z,22.00
2018-09-16T03:47:53.730Z,22.00
2018-09-16T03:50:22.155Z,22.00
2018-09-16T03:52:50.566Z,22.00
2018-09-16T03:55:18.936Z,22.00
2018-09-16T03:57:47.237Z,22.00
2018-09-16T04:00:15.686Z,22.00
2018-09-16T04:02:44.178Z,22.00
2018-09-16T04:05:12.505Z,22.00
2018-09-16T04:07:40.859Z,22.00
2018-09-16T04:10:09.379Z,21.90
2018-09-16T04:12:37.762Z,22.00
2018-09-16T04:15:06.690Z,22.00
2018-09-16T04:17:35.031Z,21.90
2018-09-16T04:20:03.510Z,22.00
2018-09-16T04:22:31.918Z,21.90
2018-09-16T04:25:00.328Z,21.90
2018-09-16T04:27:28.720Z,22.00
2018-09-16T04:29:57.917Z,21.90
2018-09-16T04:32:26.366Z,22.00
2018-09-16T04:34:54.674Z,21.90
2018-09-16T04:37:23.279Z,22.00
2018-09-16T04:39:51.579Z,21.90
2018-09-16T04:42:19.909Z,21.90
2018-09-16T04:44:48.274Z,22.00
2018-09-16T04:47:16.702Z,21.90
2018-09-16T04:49:45.155Z,22.00
2018-09-16T04:52:13.551Z,21.90
2018-09-16T04:54:41.878Z,21.90
2018-09-16T04:57:10.212Z,21.90
2018-09-16T04:59:38.644Z,21.90
2018-09-16T05:02:07.019Z,21.90
2018-09-16T05:04:35.367Z,21.90
2018-09-16T05:07:03.803Z,21.90
2018-09-16T05:09:32.221Z,21.90
2018-09-16T05:12:00.527Z,21.90
2018-09-16T05:14:28.867Z,21.90
2018-09-16T05:16:57.267Z,21.90
2018-09-16T05:19:25.619Z,21.90
2018-09-16T05:21:53.949Z,21.80
2018-09-16T05:24:22.467Z,21.90
2018-09-16T05:26:50.943Z,21.90
2018-09-16T05:29:19.323Z,21.90
2018-09-16T05:31:48.045Z,21.80
2018-09-16T05:34:16.689Z,21.90
2018-09-16T05:36:45.140Z,21.80
2018-09-16T05:39:13.498Z,21.80
2018-09-16T05:41:41.793Z,21.80
2018-09-16T05:44:10.128Z,21.80
2018-09-16T05:46:38.424Z,21.90
2018-09-16T05:49:07.162Z,21.90
2018-09-16T05:51:35.450Z,21.90
2018-09-16T05:54:03.812Z,21.90
2018-09-16T05:56:32.161Z,21.90
2018-09-16T05:59:00.778Z,21.90
2018-09-16T06:01:29.154Z,21.90
2018-09-16T06:03:57.506Z,21.90
2018-09-16T06:06:26.003Z,21.90
2018-09-16T06:08:54.398Z,21.90
2018-09-16T06:11:22.741Z,21.90
2018-09-16T06:13:51.293Z,22.00
2018-09-16T06:16:19.625Z,21.90
2018-09-16T06:18:48.069Z,21.90
2018-09-16T06:21:16.428Z,21.90
2018-09-16T06:23:44.759Z,21.80
2018-09-16T06:26:13.140Z,21.90
2018-09-16T06:28:41.842Z,21.80
2018-09-16T06:31:10.208Z,21.80
2018-09-16T06:33:38.575Z,21.80
2018-09-16T06:36:06.962Z,21.80
2018-09-16T06:38:35.279Z,21.80
2018-09-16T06:41:03.648Z,21.80
2018-09-16T06:43:32.026Z,21.70
2018-09-16T06:46:00.370Z,21.70
2018-09-16T06:48:28.688Z,21.70
2018-09-16T06:50:57.338Z,21.70
2018-09-16T06:53:25.672Z,21.70
2018-09-16T06:55:54.052Z,21.70
2018-09-16T06:58:22.462Z,21.70
2018-09-16T07:00:50.817Z,21.70
2018-09-16T07:03:19.192Z,21.70
2018-09-16T07:05:47.569Z,21.70
2018-09-16T07:08:15.886Z,21.70
2018-09-16T07:10:44.209Z,21.70
2018-09-16T07:13:12.528Z,21.70
2018-09-16T07:15:41.048Z,21.70
2018-09-16T07:18:09.375Z,21.70
2018-09-16T07:20:37.761Z,21.70
2018-09-16T07:23:06.185Z,21.70
2018-09-16T07:25:34.518Z,21.70
2018-09-16T07:28:03.065Z,21.70
2018-09-16T07:30:31.588Z,21.60
2018-09-16T07:33:00.062Z,21.60
2018-09-16T07:35:28.349Z,21.60
2018-09-16T07:37:56.816Z,21.60
2018-09-16T07:40:25.119Z,21.60
2018-09-16T07:42:53.492Z,21.60
2018-09-16T07:45:21.877Z,21.60
2018-09-16T07:47:50.242Z,21.60
2018-09-16T07:50:18.745Z,21.60
2018-09-16T07:52:47.298Z,21.60
2018-09-16T07:55:15.766Z,21.60
2018-09-16T07:57:44.092Z,21.60
2018-09-16T08:00:12.451Z,21.60
2018-09-16T08:02:40.825Z,21.60
2018-09-16T08:05:09.237Z,21.60
2018-09-16T08:07:37.675Z,21.60
2018-09-16T08:10:06.218Z,21.60
2018-09-16T08:12:34.707Z,21.50
2018-09-16T08:15:03.202Z,21.50
2018-09-16T08:17:31.578Z,21.50
2018-09-16T08:19:59.959Z,21.50
2018-09-16T08:22:28.274Z,21.50
2018-09-16T08:24:56.719Z,21.50
2018-09-16T08:27:25.101Z,21.50
2018-09-16T08:29:53.573Z,21.50
2018-09-16T08:32:21.871Z,21.60
2018-09-16T08:34:50.267Z,21.50
2018-09-16T08:37:18.626Z,21.50
2018-09-16T08:39:47.035Z,21.50
2018-09-16T08:42:15.387Z,21.50
2018-09-16T08:44:44.015Z,21.50
2018-09-16T08:47:12.423Z,21.50
2018-09-16T08:49:40.947Z,21.60
2018-09-16T08:52:09.296Z,21.60
2018-09-16T08:54:37.724Z,21.60
2018-09-16T08:57:06.213Z,21.60
2018-09-16T08:59:34.520Z,21.50
2018-09-16T09:02:02.894Z,21.50
2018-09-16T09:04:31.229Z,21.60
2018-09-16T09:06:59.602Z,21.60
2018-09-16T09:09:28.232Z,21.60
2018-09-16T09:11:56.766Z,21.60
2018-09-16T09:14:25.205Z,21.60
2018-09-16T09:16:53.528Z,21.70
2018-09-16T09:19:21.983Z,21.70
2018-09-16T09:21:50.347Z,21.70
2018-09-16T09:24:18.644Z,21.70
2018-09-16T09:26:47.084Z,21.70
2018-09-16T09:29:15.868Z,21.70
2018-09-16T09:31:44.298Z,21.70
2018-09-16T09:34:12.628Z,21.70
2018-09-16T09:36:41.044Z,21.70
2018-09-16T09:39:11.679Z,21.80
2018-09-16T09:41:40.114Z,21.80
2018-09-16T09:44:08.786Z,21.80
2018-09-16T09:46:37.260Z,21.80
2018-09-16T09:49:05.680Z,21.80
2018-09-16T09:51:34.154Z,21.80
2018-09-16T09:54:02.559Z,21.80
2018-09-16T09:56:31.201Z,21.80
2018-09-16T09:59:00.762Z,21.80
2018-09-16T10:01:29.181Z,21.90
2018-09-16T10:03:57.633Z,21.90
2018-09-16T10:06:26.039Z,21.90
2018-09-16T10:08:54.563Z,22.00
2018-09-16T10:11:22.880Z,21.90
2018-09-16T10:13:51.395Z,21.90
2018-09-16T10:16:19.635Z,22.00
2018-09-16T10:18:48.167Z,22.00
2018-09-16T10:21:16.497Z,22.00
2018-09-16T10:23:44.868Z,22.00
2018-09-16T10:26:13.514Z,22.00
2018-09-16T10:28:42.060Z,22.00
2018-09-16T10:31:10.459Z,22.00
2018-09-16T10:33:38.869Z,22.00
2018-09-16T10:36:07.616Z,22.10
2018-09-16T10:38:38.208Z,22.10
2018-09-16T10:41:06.737Z,22.10
2018-09-16T10:43:35.378Z,22.10
2018-09-16T10:46:03.886Z,22.10
2018-09-16T10:48:32.247Z,22.10
2018-09-16T10:51:00.611Z,22.10
2018-09-16T10:53:29.097Z,22.20
2018-09-16T10:55:57.510Z,22.10
2018-09-16T10:58:25.941Z,22.10
2018-09-16T11:00:54.291Z,22.20
2018-09-16T11:03:22.636Z,22.20
2018-09-16T11:05:50.962Z,22.20
2018-09-16T11:08:19.539Z,22.20
2018-09-16T11:10:47.890Z,22.20
2018-09-16T11:13:16.559Z,22.20
2018-09-16T11:15:44.935Z,22.20
2018-09-16T11:18:13.319Z,22.30
2018-09-16T11:20:41.874Z,22.30
2018-09-16T11:23:10.188Z,22.30
2018-09-16T11:25:38.560Z,22.30
2018-09-16T11:28:07.808Z,22.30
2018-09-16T11:30:36.246Z,22.30
2018-09-16T11:33:04.585Z,22.30
2018-09-16T11:35:32.967Z,22.30
2018-09-16T11:38:01.288Z,22.40
2018-09-16T11:40:29.821Z,22.40
2018-09-16T11:42:58.128Z,22.40
2018-09-16T11:45:26.504Z,22.40
2018-09-16T11:47:54.838Z,22.40
2018-09-16T11:50:23.153Z,22.40
2018-09-16T11:52:51.506Z,22.40
2018-09-16T11:55:19.857Z,22.50
2018-09-16T11:57:48.218Z,22.50
2018-09-16T12:00:16.615Z,22.50
2018-09-16T12:02:45.091Z,22.60
2018-09-16T12:05:13.474Z,22.60
2018-09-16T12:07:41.789Z,22.60
2018-09-16T12:10:10.269Z,22.60
2018-09-16T12:12:38.592Z,22.60
2018-09-16T12:15:06.971Z,22.70
2018-09-16T12:17:35.659Z,22.70
2018-09-16T12:20:04.322Z,22.70
2018-09-16T12:22:32.692Z,22.70
2018-09-16T12:25:01.134Z,22.70
2018-09-16T12:27:29.481Z,22.70
2018-09-16T12:29:57.805Z,22.70
2018-09-16T12:32:26.581Z,22.70
2018-09-16T12:34:55.063Z,22.80
2018-09-16T12:37:23.597Z,22.80
2018-09-16T12:39:51.988Z,22.80
2018-09-16T12:42:20.374Z,22.80
2018-09-16T12:44:48.818Z,22.80
2018-09-16T12:47:17.234Z,22.80
2018-09-16T12:49:45.661Z,22.80
2018-09-16T12:52:14.012Z,22.80
2018-09-16T12:54:42.371Z,22.80
2018-09-16T12:57:10.877Z,22.90
2018-09-16T12:59:39.318Z,22.90
2018-09-16T13:02:07.675Z,22.90
2018-09-16T13:04:36.163Z,22.90
2018-09-16T13:07:04.511Z,22.90
2018-09-16T13:09:32.951Z,22.90
2018-09-16T13:12:01.285Z,23.00
2018-09-16T13:14:29.719Z,23.00
2018-09-16T13:16:58.122Z,23.00
2018-09-16T13:19:26.649Z,23.00
2018-09-16T13:21:54.955Z,23.00
2018-09-16T13:24:23.379Z,23.00
2018-09-16T13:26:51.728Z,23.00
2018-09-16T13:29:20.144Z,23.00
2018-09-16T13:31:48.462Z,23.00
2018-09-16T13:34:16.815Z,23.10
2018-09-16T13:36:45.190Z,23.10
2018-09-16T13:39:13.528Z,23.00
2018-09-16T13:41:41.892Z,23.10
2018-09-16T13:44:10.254Z,23.10
2018-09-16T13:46:38.618Z,23.10
2018-09-16T13:49:07.330Z,23.10
2018-09-16T13:51:35.832Z,23.10
2018-09-16T13:54:04.451Z,23.10
2018-09-16T13:56:32.858Z,23.10
2018-09-16T13:59:01.205Z,23.10
2018-09-16T14:01:29.694Z,23.10
2018-09-16T14:03:58.099Z,23.10
2018-09-16T14:06:26.552Z,23.20
2018-09-16T14:08:54.874Z,23.20
2018-09-16T14:11:23.244Z,23.20
2018-09-16T14:13:51.650Z,23.20
2018-09-16T14:16:20.027Z,23.20
2018-09-16T14:18:48.372Z,23.20
2018-09-16T14:21:16.857Z,23.20
2018-09-16T14:23:45.252Z,23.20
2018-09-16T14:26:13.696Z,23.20
2018-09-16T14:28:41.997Z,23.20
2018-09-16T14:31:10.345Z,23.20
2018-09-16T14:33:38.790Z,23.20
2018-09-16T14:36:07.802Z,23.20
2018-09-16T14:38:36.185Z,23.20
2018-09-16T14:41:04.483Z,23.20
2018-09-16T14:43:32.878Z,23.20
2018-09-16T14:46:01.259Z,23.20
2018-09-16T14:48:30.083Z,23.20
2018-09-16T14:50:58.399Z,23.30
2018-09-16T14:53:26.723Z,23.30
2018-09-16T14:55:55.059Z,23.30
2018-09-16T14:58:23.456Z,23.30
2018-09-16T15:00:51.792Z,23.20
2018-09-16T15:03:20.127Z,23.30
2018-09-16T15:05:48.825Z,23.30
2018-09-16T15:08:18.020Z,23.30
2018-09-16T15:10:47.511Z,23.20
2018-09-16T15:13:16.883Z,23.30
2018-09-16T15:15:45.518Z,23.30
2018-09-16T15:18:13.889Z,23.30
2018-09-16T15:20:42.210Z,23.30
2018-09-16T15:23:10.561Z,23.30
2018-09-16T15:25:38.895Z,23.20
2018-09-16T15:28:07.213Z,23.20
2018-09-16T15:30:35.576Z,23.30
2018-09-16T15:33:03.939Z,23.20
2018-09-16T15:35:32.288Z,23.20
2018-09-16T15:38:00.584Z,23.20
2018-09-16T15:40:28.971Z,23.20
2018-09-16T15:42:57.296Z,23.20
2018-09-16T15:45:25.695Z,23.20
2018-09-16T15:47:54.062Z,23.20
2018-09-16T15:50:22.584Z,23.20
2018-09-16T15:52:51.127Z,23.20
2018-09-16T15:55:19.716Z,23.20
2018-09-16T15:57:48.205Z,23.20
2018-09-16T16:00:16.821Z,23.20
2018-09-16T16:02:45.186Z,23.20
2018-09-16T16:05:13.539Z,23.10
2018-09-16T16:07:41.879Z,23.10
2018-09-16T16:10:10.028Z,23.10
2018-09-16T16:12:38.404Z,23.10
2018-09-16T16:15:06.757Z,23.10
2018-09-16T16:17:35.160Z,23.10
2018-09-16T16:20:04.108Z,23.10
2018-09-16T16:22:32.727Z,23.10
2018-09-16T16:25:01.198Z,23.10
2018-09-16T16:27:29.596Z,23.10
2018-09-16T16:29:57.905Z,23.10
2018-09-16T16:32:26.394Z,23.10
2018-09-16T16:34:55.018Z,23.10
2018-09-16T16:37:23.393Z,23.10
2018-09-16T16:39:51.766Z,23.10
2018-09-16T16:42:20.118Z,23.10
2018-09-16T16:44:48.535Z,23.10
2018-09-16T16:47:17.009Z,23.10
2018-09-16T16:49:45.306Z,23.10
2018-09-16T16:52:13.819Z,23.10
2018-09-16T16:54:42.133Z,23.10
2018-09-16T16:57:10.597Z,23.10
2018-09-16T16:59:38.955Z,23.10
2018-09-16T17:02:07.461Z,23.10
2018-09-16T17:04:36.479Z,23.10
2018-09-16T17:07:05.705Z,23.10
2018-09-16T17:09:34.972Z,23.00
2018-09-16T17:12:07.001Z,23.00
2018-09-16T17:14:35.937Z,23.00
2018-09-16T17:17:05.305Z,23.00
2018-09-16T17:19:33.895Z,23.00
2018-09-16T17:22:02.338Z,23.00
2018-09-16T17:24:30.769Z,23.00
2018-09-16T17:26:59.183Z,23.00
2018-09-16T17:29:27.540Z,23.00
2018-09-16T17:31:55.883Z,23.00
2018-09-16T17:34:24.351Z,23.00
2018-09-16T17:36:52.713Z,23.00
2018-09-16T17:39:21.098Z,23.00
2018-09-16T17:41:49.543Z,23.00
2018-09-16T17:44:18.178Z,23.00
2018-09-16T17:46:46.630Z,22.90
2018-09-16T17:49:15.021Z,22.90
2018-09-16T17:51:43.445Z,22.90
2018-09-16T17:54:11.942Z,22.90
2018-09-16T17:56:40.567Z,22.90
2018-09-16T17:59:08.975Z,22.90
2018-09-16T18:01:37.413Z,22.90
2018-09-16T18:04:06.153Z,22.90
2018-09-16T18:06:34.696Z,22.80
2018-09-16T18:09:03.139Z,22.90
2018-09-16T18:11:31.950Z,22.80
2018-09-16T18:14:00.480Z,22.80
2018-09-16T18:16:28.948Z,22.80
2018-09-16T18:18:57.333Z,22.80
2018-09-16T18:21:25.882Z,22.80
2018-09-16T18:23:54.400Z,22.80
2018-09-16T18:26:22.970Z,22.80
2018-09-16T18:28:51.586Z,22.80
2018-09-16T18:31:20.001Z,22.80
2018-09-16T18:33:48.514Z,22.80
2018-09-16T18:36:17.112Z,22.80
2018-09-16T18:38:45.466Z,22.80
2018-09-16T18:41:13.817Z,22.80
2018-09-16T18:43:42.213Z,22.80
2018-09-16T18:46:10.670Z,22.80
2018-09-16T18:48:39.199Z,22.90
2018-09-16T18:51:07.926Z,22.90
2018-09-16T18:53:36.384Z,22.90
2018-09-16T18:56:05.121Z,22.90
2018-09-16T18:58:33.546Z,22.90
2018-09-16T19:01:01.946Z,22.90
2018-09-16T19:03:30.313Z,22.90
2018-09-16T19:05:58.750Z,22.90
2018-09-16T19:08:31.662Z,22.90
2018-09-16T19:11:00.454Z,22.90
2018-09-16T19:13:29.100Z,22.90
2018-09-16T19:15:58.121Z,22.90
2018-09-16T19:18:26.832Z,22.90
2018-09-16T19:20:55.640Z,22.90
2018-09-16T19:23:24.048Z,22.90
2018-09-16T19:25:52.412Z,22.90
2018-09-16T19:28:20.873Z,22.90
2018-09-16T19:30:49.200Z,22.90
2018-09-16T19:33:17.606Z,22.90
2018-09-16T19:35:45.970Z,22.90
2018-09-16T19:38:14.549Z,22.90
2018-09-16T19:40:42.990Z,22.90
2018-09-16T19:43:11.380Z,22.90
2018-09-16T19:45:39.799Z,22.90
2018-09-16T19:48:08.273Z,22.90
2018-09-16T19:50:36.594Z,22.90
2018-09-16T19:53:05.581Z,22.90
2018-09-16T19:55:34.432Z,22.90
2018-09-16T19:58:02.887Z,22.90
2018-09-16T20:00:31.421Z,22.90
2018-09-16T20:03:00.165Z,22.90
2018-09-16T20:05:28.537Z,22.90
2018-09-16T20:07:58.568Z,22.90
2018-09-16T20:10:27.011Z,22.90
2018-09-16T20:12:55.484Z,22.90
2018-09-16T20:15:23.957Z,22.90
2018-09-16T20:17:52.399Z,22.90
2018-09-16T20:20:22.414Z,22.90
2018-09-16T20:22:50.822Z,22.90
2018-09-16T20:25:19.199Z,22.80
2018-09-16T20:27:47.644Z,22.90
2018-09-16T20:30:16.045Z,22.90
2018-09-16T20:32:44.462Z,22.90
2018-09-16T20:35:12.818Z,22.90
2018-09-16T20:37:41.192Z,22.90
2018-09-16T20:40:09.843Z,22.90
2018-09-16T20:42:38.346Z,22.90
2018-09-16T20:45:06.936Z,22.90
2018-09-16T20:47:35.307Z,22.90
2018-09-16T20:50:03.632Z,22.90
2018-09-16T20:52:32.021Z,22.90
2018-09-16T20:55:00.330Z,22.90
2018-09-16T20:57:28.662Z,22.90
2018-09-16T20:59:57.118Z,22.90
2018-09-16T21:02:25.635Z,22.80
2018-09-16T21:04:54.383Z,22.80
2018-09-16T21:07:22.797Z,22.90
2018-09-16T21:09:51.879Z,22.80
2018-09-16T21:12:20.361Z,22.80
2018-09-16T21:14:48.719Z,22.80
2018-09-16T21:17:17.149Z,22.80
2018-09-16T21:19:45.513Z,22.80
2018-09-16T21:22:14.067Z,22.80
2018-09-16T21:24:42.417Z,22.80
2018-09-16T21:27:10.773Z,22.80
2018-09-16T21:29:39.124Z,22.80
2018-09-16T21:32:07.554Z,22.80
2018-09-16T21:34:36.012Z,22.80
2018-09-16T21:37:04.389Z,22.90
2018-09-16T21:39:32.928Z,22.80
2018-09-16T21:42:01.306Z,22.80
2018-09-16T21:44:29.636Z,22.80
2018-09-16T21:46:57.964Z,22.80
2018-09-16T21:49:26.475Z,22.80
2018-09-16T21:51:54.803Z,22.80
2018-09-16T21:54:23.293Z,22.80
2018-09-16T21:56:51.637Z,22.80
2018-09-16T21:59:20.013Z,22.80
2018-09-16T22:01:48.351Z,22.80
2018-09-16T22:04:16.710Z,22.80
2018-09-16T22:06:45.032Z,22.80
2018-09-16T22:09:13.376Z,22.80
2018-09-16T22:11:41.839Z,22.80
2018-09-16T22:14:10.181Z,22.80
2018-09-16T22:16:38.721Z,22.80
2018-09-16T22:19:07.083Z,22.80
2018-09-16T22:21:35.437Z,22.80
2018-09-16T22:24:03.821Z,22.80
2018-09-16T22:26:32.129Z,22.80
2018-09-16T22:29:00.481Z,22.80
2018-09-16T22:31:28.815Z,22.80
2018-09-16T22:33:57.405Z,22.80
2018-09-16T22:36:25.924Z,22.80
2018-09-16T22:38:54.249Z,22.80
2018-09-16T22:41:22.727Z,22.80
2018-09-16T22:43:51.032Z,22.80
2018-09-16T22:46:19.453Z,22.80
2018-09-16T22:48:47.775Z,22.80
2018-09-16T22:51:16.706Z,22.80
2018-09-16T22:53:45.089Z,22.80
2018-09-16T22:56:13.537Z,22.80
2018-09-16T22:58:41.984Z,22.80
2018-09-16T23:01:10.706Z,22.80
2018-09-16T23:03:39.050Z,22.80
2018-09-16T23:06:07.458Z,22.80
2018-09-16T23:08:35.773Z,22.80
2018-09-16T23:11:04.204Z,22.80
2018-09-16T23:13:32.552Z,22.70
2018-09-16T23:16:00.932Z,22.70
2018-09-16T23:18:29.300Z,22.70
2018-09-16T23:20:57.656Z,22.70
2018-09-16T23:23:26.209Z,22.70
2018-09-16T23:25:54.670Z,22.70
2018-09-16T23:28:23.039Z,22.70
2018-09-16T23:30:51.426Z,22.70
2018-09-16T23:33:19.796Z,22.70
2018-09-16T23:35:48.127Z,22.70
2018-09-16T23:38:16.483Z,22.70
2018-09-16T23:40:44.827Z,22.70
2018-09-16T23:43:13.134Z,22.70
2018-09-16T23:45:41.432Z,22.70
2018-09-16T23:48:09.794Z,22.70
2018-09-16T23:50:38.253Z,22.70
2018-09-16T23:53:06.884Z,22.70
2018-09-16T23:55:35.195Z,22.70
2018-09-16T23:58:03.642Z,22.70
